Time;durP1;ratioP1;P1;durP2;ratioP2;P2;SDS_P1;SDS_P2;PMS_P1;PMS_P2;Temp;Humidity;BMP_temperature;BMP_pressure;BME280_temperature;BME280_humidity;BME280_pressure;Samples;Min_cycle;Max_cycle;Signal;HPM_P1;HPM_P2
2024/04/24 00:01:07;;;;;;;11.17;5.83;;;;;;;2.24;100.00;101651.19;5562134;25;20345;-69
2024/04/24 00:03:32;;;;;;;12.27;6.93;;;;;;;2.35;100.00;101673.31;5553374;25;20028;-68
2024/04/24 00:05:58;;;;;;;10.80;5.57;;;;;;;2.26;100.00;101660.69;5566405;25;20016;-68
2024/04/24 00:08:23;;;;;;;6.43;5.70;;;;;;;2.27;100.00;101666.78;5562388;25;20079;-69
2024/04/24 00:10:53;;;;;;;6.43;4.60;;;;;;;2.15;100.00;101650.78;5566438;25;20431;-68
2024/04/24 00:13:18;;;;;;;8.33;4.63;;;;;;;2.25;100.00;101661.63;5551695;25;20436;-68
2024/04/24 00:15:44;;;;;;;10.93;5.33;;;;;;;2.10;100.00;101633.59;5563922;25;20304;-68
2024/04/24 00:18:12;;;;;;;7.80;4.90;;;;;;;2.30;100.00;101653.47;5537934;25;20030;-67
2024/04/24 00:20:37;;;;;;;7.50;4.93;;;;;;;2.20;100.00;101644.41;5528776;25;20029;-69
2024/04/24 00:23:03;;;;;;;6.53;4.93;;;;;;;2.24;100.00;101651.19;5562912;25;20229;-67
2024/04/24 00:25:29;;;;;;;8.83;5.23;;;;;;;2.20;100.00;101654.94;5531108;25;20016;-68
2024/04/24 00:27:56;;;;;;;7.00;4.83;;;;;;;2.27;100.00;101666.78;5563209;25;20236;-68
2024/04/24 00:30:22;;;;;;;8.13;5.50;;;;;;;2.18;100.00;101658.50;5488880;26;20034;-67
2024/04/24 00:32:48;;;;;;;9.27;5.17;;;;;;;2.05;100.00;101636.47;5547018;25;20217;-68
2024/04/24 00:35:13;;;;;;;11.93;5.60;;;;;;;2.22;100.00;101659.16;5538276;25;20605;-68
2024/04/24 00:37:39;;;;;;;7.30;5.57;;;;;;;1.99;100.00;101630.69;5551670;25;20051;-66
2024/04/24 00:40:06;;;;;;;13.53;6.53;;;;;;;2.26;100.00;101670.34;5509149;26;20006;-68
2024/04/24 00:42:32;;;;;;;10.07;6.23;;;;;;;2.26;100.00;101662.47;5537056;25;20020;-68
2024/04/24 00:44:57;;;;;;;8.43;5.63;;;;;;;2.29;100.00;101659.66;5540668;25;20857;-68
2024/04/24 00:47:23;;;;;;;8.33;5.23;;;;;;;2.27;100.00;101658.91;5493853;26;20009;-68
2024/04/24 00:49:51;;;;;;;11.10;5.43;;;;;;;2.31;100.00;101670.91;5541039;25;20084;-69
2024/04/24 00:52:17;;;;;;;6.57;4.75;;;;;;;2.01;100.00;101624.44;5538068;25;20021;-69
2024/04/24 00:54:43;;;;;;;6.73;4.70;;;;;;;2.02;100.00;101626.13;5542262;25;20579;-67
2024/04/24 00:57:09;;;;;;;6.13;5.43;;;;;;;2.13;100.00;101644.78;5546153;25;20005;-68
2024/04/24 00:59:35;;;;;;;8.90;5.03;;;;;;;2.25;100.00;101647.63;5507750;25;20008;-67
2024/04/24 01:02:01;;;;;;;9.47;5.07;;;;;;;2.34;100.00;101649.75;5543106;25;20001;-68
2024/04/24 01:04:27;;;;;;;7.43;5.27;;;;;;;2.42;100.00;101656.25;5545398;25;20256;-69
2024/04/24 01:06:52;;;;;;;8.70;5.97;;;;;;;2.45;100.00;101658.69;5536480;25;20013;-68
2024/04/24 01:09:18;;;;;;;7.93;5.23;;;;;;;2.36;100.00;101653.13;5549306;25;20023;-68
2024/04/24 01:11:43;;;;;;;5.93;4.80;;;;;;;2.26;100.00;101641.44;5512709;25;20040;-67
2024/04/24 01:14:08;;;;;;;5.73;4.73;;;;;;;2.41;100.00;101653.72;5538468;25;20148;-69
2024/04/24 01:16:39;;;;;;;8.60;5.73;;;;;;;2.39;100.00;101645.06;5544145;25;20020;-68
2024/04/24 01:19:22;;;;;;;7.63;5.03;;;;;;;2.33;100.00;101645.44;5511592;25;20005;-68
2024/04/24 01:22:00;;;;;;;9.83;5.20;;;;;;;2.38;100.00;101653.88;5544825;25;20350;-67
2024/04/24 01:24:31;;;;;;;7.27;4.67;;;;;;;2.41;100.00;101658.97;5540400;25;20245;-69
2024/04/24 01:26:57;;;;;;;6.00;4.40;;;;;;;2.47;100.00;101659.47;5544392;25;20246;-68
2024/04/24 01:29:24;;;;;;;9.63;5.03;;;;;;;2.43;100.00;101655.31;5546816;25;20245;-68
2024/04/24 01:31:49;;;;;;;6.97;4.47;;;;;;;2.32;100.00;101638.47;5538995;25;20459;-67
2024/04/24 01:34:15;;;;;;;5.50;4.90;;;;;;;2.39;99.74;101653.81;5546607;25;20326;-68
2024/04/24 01:36:40;;;;;;;6.37;4.93;;;;;;;2.34;100.00;101647.97;5542601;25;20370;-68
2024/04/24 01:39:06;;;;;;;5.77;4.23;;;;;;;2.22;100.00;101643.38;5532221;25;20016;-69
2024/04/24 01:41:31;;;;;;;5.60;4.27;;;;;;;2.24;100.00;101645.94;5558944;25;20058;-69
2024/04/24 01:43:57;;;;;;;8.43;4.90;;;;;;;2.27;100.00;101657.13;5537362;25;20016;-70
2024/04/24 01:46:22;;;;;;;9.93;4.80;;;;;;;2.35;100.00;101659.31;5546451;25;20002;-68
2024/04/24 01:48:48;;;;;;;7.57;4.33;;;;;;;2.42;100.00;101671.19;5540178;25;20005;-69
2024/04/24 01:51:13;;;;;;;6.33;4.10;;;;;;;2.29;100.00;101639.47;5545054;25;20008;-70
2024/04/24 01:53:39;;;;;;;9.47;4.93;;;;;;;2.24;100.00;101638.88;5555449;25;20020;-69
2024/04/24 01:56:05;;;;;;;6.40;4.60;;;;;;;2.31;100.00;101663.88;5540196;25;20526;-68
2024/04/24 01:58:30;;;;;;;8.50;4.73;;;;;;;2.23;100.00;101660.00;5542421;25;20486;-67
2024/04/24 02:00:55;;;;;;;12.17;4.77;;;;;;;2.21;100.00;101661.88;5538676;25;20000;-67
2024/04/24 02:03:21;;;;;;;6.27;4.20;;;;;;;2.17;100.00;101662.06;5550590;25;20164;-68
2024/04/24 02:05:46;;;;;;;5.20;3.90;;;;;;;2.12;100.00;101665.88;5545292;25;20466;-69
2024/04/24 02:08:12;;;;;;;8.40;4.50;;;;;;;2.15;100.00;101670.97;5546560;25;20020;-68
2024/04/24 02:10:37;;;;;;;6.20;4.63;;;;;;;2.21;100.00;101669.75;5546399;25;20005;-70
2024/04/24 02:13:03;;;;;;;5.70;4.60;;;;;;;1.96;100.00;101636.97;5543242;25;20013;-69
2024/04/24 02:15:28;;;;;;;6.10;4.53;;;;;;;2.18;100.00;101676.88;5542312;25;20028;-68
2024/04/24 02:17:55;;;;;;;7.63;4.77;;;;;;;2.08;100.00;101654.69;5503693;25;20020;-69
2024/04/24 02:20:20;;;;;;;13.10;4.70;;;;;;;2.13;100.00;101665.78;5541309;25;19998;-68
2024/04/24 02:22:46;;;;;;;5.60;4.20;;;;;;;2.12;100.00;101677.25;5525049;26;20260;-69
2024/04/24 02:27:57;;;;;;;8.80;4.23;;;;;;;2.11;100.00;101667.66;5525357;26;20073;-69
2024/04/24 02:30:25;;;;;;;7.37;4.20;;;;;;;2.20;100.00;101675.94;5525188;26;20242;-69
2024/04/24 02:32:50;;;;;;;6.80;4.07;;;;;;;2.28;100.00;101678.97;5492038;26;20230;-68
2024/04/24 02:35:16;;;;;;;6.50;4.03;;;;;;;2.17;100.00;101676.97;5524823;26;20278;-68
2024/04/24 02:37:41;;;;;;;6.63;4.20;;;;;;;2.21;100.00;101685.53;5525036;26;20000;-68
2024/04/24 02:40:07;;;;;;;6.93;4.27;;;;;;;2.14;100.00;101683.25;5524635;26;20106;-69
2024/04/24 02:42:34;;;;;;;6.03;3.83;;;;;;;2.07;100.00;101684.53;5524771;26;20041;-69
2024/04/24 02:44:59;;;;;;;7.00;4.53;;;;;;;2.04;100.00;101686.50;5461955;26;20012;-69
2024/04/24 02:47:25;;;;;;;7.97;4.50;;;;;;;2.08;100.00;101688.84;5461615;26;20237;-68
2024/04/24 02:49:50;;;;;;;6.23;4.37;;;;;;;1.86;100.00;101656.81;5524938;26;20017;-69
2024/04/24 02:52:16;;;;;;;5.93;4.10;;;;;;;1.90;100.00;101668.84;5491665;26;20012;-70
2024/04/24 02:54:41;;;;;;;4.70;4.20;;;;;;;1.85;100.00;101663.84;5524504;26;20091;-67
2024/04/24 02:57:08;;;;;;;7.17;3.77;;;;;;;2.01;100.00;101687.47;5461501;26;20033;-69
2024/04/24 02:59:34;;;;;;;6.23;4.00;;;;;;;2.02;100.00;101685.69;5524971;26;20001;-68
2024/04/24 03:01:59;;;;;;;6.00;4.50;;;;;;;2.05;99.70;101689.03;5524470;26;20782;-69
2024/04/24 03:04:25;;;;;;;11.07;4.30;;;;;;;2.06;99.67;101695.97;5524613;26;20012;-69
2024/04/24 03:06:50;;;;;;;9.20;4.10;;;;;;;1.97;100.00;101685.97;5524804;26;20029;-68
2024/04/24 03:09:16;;;;;;;7.23;4.20;;;;;;;1.92;100.00;101684.53;5524314;26;20009;-70
2024/04/24 03:11:41;;;;;;;6.50;4.23;;;;;;;1.95;100.00;101681.72;5524370;26;20877;-70
2024/04/24 03:14:07;;;;;;;7.33;4.30;;;;;;;1.86;98.68;101672.59;5524327;26;20012;-67
2024/04/24 03:16:32;;;;;;;6.67;4.90;;;;;;;1.98;99.12;101713.94;5524054;26;20012;-68
2024/04/24 03:18:58;;;;;;;8.97;4.80;;;;;;;2.02;98.66;101706.72;5523806;26;20135;-67
2024/04/24 03:21:25;;;;;;;6.30;4.47;;;;;;;2.09;99.19;101706.31;5491454;26;20009;-70
2024/04/24 03:23:50;;;;;;;25.63;7.80;;;;;;;2.07;98.57;101718.69;5523621;26;19997;-69
2024/04/24 03:26:16;;;;;;;13.40;9.23;;;;;;;1.92;99.01;101708.16;5523752;26;20278;-69
2024/04/24 03:28:42;;;;;;;13.93;8.20;;;;;;;1.90;98.70;101721.38;5523855;26;20070;-67
2024/04/24 03:31:08;;;;;;;7.77;4.13;;;;;;;1.83;98.68;101709.53;5523685;26;20099;-68
2024/04/24 03:33:34;;;;;;;5.10;3.90;;;;;;;1.89;99.30;101718.84;5523453;26;20029;-68
2024/04/24 03:35:59;;;;;;;8.33;4.93;;;;;;;1.81;100.00;101719.28;5523530;26;19998;-68
2024/04/24 03:38:25;;;;;;;10.23;5.10;;;;;;;1.71;100.00;101707.53;5523579;26;20078;-68
2024/04/24 03:40:50;;;;;;;6.77;4.30;;;;;;;1.72;100.00;101710.09;5491059;26;20005;-68
2024/04/24 03:43:19;;;;;;;7.03;5.47;;;;;;;1.78;100.00;101733.41;5523956;26;20096;-70
2024/04/24 03:45:45;;;;;;;6.13;4.75;;;;;;;1.84;100.00;101708.59;5523921;26;19997;-68
2024/04/24 03:48:11;;;;;;;6.20;4.43;;;;;;;2.20;99.65;101718.00;5523514;26;20035;-68
2024/04/24 03:50:37;;;;;;;8.57;4.83;;;;;;;2.58;98.33;101721.94;5523375;26;20344;-68
2024/04/24 03:53:02;;;;;;;8.73;5.63;;;;;;;2.71;96.10;101704.53;5523484;26;20221;-69
2024/04/24 03:55:28;;;;;;;8.53;4.67;;;;;;;2.70;95.08;101721.25;5523684;26;20013;-68
2024/04/24 03:57:53;;;;;;;11.40;5.20;;;;;;;2.73;95.09;101731.59;5523603;26;20747;-69
2024/04/24 04:00:19;;;;;;;5.63;4.50;;;;;;;2.60;95.24;101722.72;5491006;26;20013;-68
2024/04/24 04:02:44;;;;;;;7.27;5.10;;;;;;;2.95;95.43;101732.97;5523427;26;20401;-67
2024/04/24 04:05:10;;;;;;;7.60;5.23;;;;;;;2.97;93.84;101689.84;5525686;26;20411;-70
2024/04/24 04:07:35;;;;;;;8.50;4.20;;;;;;;3.21;91.83;101716.50;5526902;26;20012;-70
2024/04/24 04:10:02;;;;;;;10.43;5.13;;;;;;;3.38;89.95;101737.38;5526675;26;20006;-67
2024/04/24 04:12:28;;;;;;;7.33;4.50;;;;;;;3.16;89.36;101684.31;5526955;26;20005;-67
2024/04/24 04:14:53;;;;;;;6.50;4.33;;;;;;;3.38;87.53;101710.19;5526737;26;20242;-68
2024/04/24 04:17:19;;;;;;;11.30;5.83;;;;;;;3.50;88.22;101724.41;5526969;26;20184;-69
2024/04/24 04:19:44;;;;;;;7.57;5.10;;;;;;;3.37;87.33;101706.72;5526567;26;20013;-69
2024/04/24 04:22:10;;;;;;;8.23;5.00;;;;;;;2.82;87.22;101629.38;5526791;26;20013;-69
2024/04/24 04:24:35;;;;;;;8.37;4.83;;;;;;;3.24;87.75;101692.63;5493896;26;20012;-68
2024/04/24 04:27:01;;;;;;;9.60;5.60;;;;;;;3.18;88.22;101671.94;5525649;26;20013;-68
2024/04/24 04:29:27;;;;;;;5.53;4.33;;;;;;;3.27;86.36;101702.09;5493865;26;19998;-72
2024/04/24 04:31:53;;;;;;;8.50;4.80;;;;;;;3.33;86.27;101743.84;5526483;26;20001;-69
2024/04/24 04:34:18;;;;;;;9.43;5.13;;;;;;;3.28;86.85;101730.13;5525832;26;20266;-71
2024/04/24 04:36:44;;;;;;;6.90;4.37;;;;;;;3.59;86.55;101752.81;5526115;25;20424;-70
2024/04/24 04:39:09;;;;;;;9.00;5.07;;;;;;;3.69;84.73;101728.44;5548876;25;20127;-75
2024/04/24 04:41:34;;;;;;;7.63;4.90;;;;;;;3.90;84.30;101728.91;5561033;25;20015;-74
2024/04/24 04:44:00;;;;;;;8.57;5.33;;;;;;;4.01;83.33;101742.25;5550995;25;20005;-74
2024/04/24 04:46:26;;;;;;;7.40;4.77;;;;;;;3.97;83.28;101746.03;5540044;25;20324;-73
2024/04/24 04:48:51;;;;;;;8.47;4.60;;;;;;;3.84;82.39;101755.66;5531788;25;20020;-71
2024/04/24 04:51:17;;;;;;;9.67;4.83;;;;;;;3.45;83.02;101711.50;5564358;25;20475;-68
2024/04/24 04:53:43;;;;;;;11.10;6.07;;;;;;;3.57;83.38;101757.34;5554726;25;20016;-67
2024/04/24 04:56:08;;;;;;;8.83;5.73;;;;;;;3.95;79.93;101740.00;5555944;25;20008;-66
2024/04/24 04:58:34;;;;;;;8.37;5.77;;;;;;;4.07;80.48;101745.47;5521908;26;20343;-65
2024/04/24 05:01:00;;;;;;;8.27;5.10;;;;;;;3.95;82.65;101739.16;5511270;26;20005;-71
2024/04/24 05:03:25;;;;;;;8.90;5.73;;;;;;;3.92;83.31;101736.72;5463386;26;20005;-67
2024/04/24 05:05:52;;;;;;;11.87;5.73;;;;;;;4.10;82.87;101746.13;5497621;25;20043;-69
2024/04/24 05:08:18;;;;;;;10.63;6.20;;;;;;;4.37;79.47;101742.66;5558497;25;19996;-68
2024/04/24 05:10:43;;;;;;;9.37;6.53;;;;;;;4.60;77.41;101760.47;5531479;25;20751;-70
2024/04/24 05:13:10;;;;;;;10.53;5.40;;;;;;;4.52;76.80;101766.25;5504835;25;20393;-69
2024/04/24 05:15:36;;;;;;;9.90;4.30;;;;;;;4.49;75.46;101755.91;5530076;25;20036;-68
2024/04/24 05:18:05;;;;;;;12.07;6.17;;;;;;;4.12;76.39;101743.38;5525765;25;20221;-70
2024/04/24 05:20:31;;;;;;;7.63;5.10;;;;;;;4.24;77.14;101771.59;5520862;25;20028;-71
2024/04/24 05:23:05;;;;;;;11.40;5.30;;;;;;;4.25;78.79;101765.38;5560462;25;20719;-68
2024/04/24 05:25:36;;;;;;;11.77;6.70;;;;;;;4.08;81.15;101762.97;5479731;25;20001;-70
2024/04/24 05:30:52;;;;;;;15.13;7.43;;;;;;;4.08;81.33;101749.78;5552229;25;20232;-69
2024/04/24 05:33:19;;;;;;;11.43;6.43;;;;;;;4.22;79.18;101776.13;5525914;25;20731;-71
2024/04/24 05:36:02;;;;;;;19.20;8.30;;;;;;;4.37;79.48;101780.44;5507491;26;20274;-71
2024/04/24 05:38:28;;;;;;;14.07;7.57;;;;;;;4.43;79.44;101758.94;5456915;26;20255;-69
2024/04/24 05:40:54;;;;;;;12.47;6.60;;;;;;;4.47;77.38;101738.47;5457775;26;20562;-69
2024/04/24 05:43:20;;;;;;;7.23;6.20;;;;;;;4.59;75.56;101771.97;5461846;25;20021;-66
2024/04/24 05:45:45;;;;;;;13.27;5.17;;;;;;;4.60;76.31;101760.47;5472222;26;20001;-72
2024/04/24 05:48:11;;;;;;;8.40;4.50;;;;;;;4.65;72.69;101768.94;5492782;26;20486;-68
2024/04/24 05:50:36;;;;;;;7.77;4.47;;;;;;;4.70;72.80;101744.91;5493283;26;20001;-68
2024/04/24 05:53:02;;;;;;;14.23;5.03;;;;;;;4.90;71.57;101774.28;5493717;26;20002;-71
2024/04/24 05:55:28;;;;;;;17.67;8.83;;;;;;;4.84;73.14;101734.25;5463268;26;20002;-70
2024/04/24 05:57:54;;;;;;;29.40;12.83;;;;;;;4.93;73.19;101747.72;5525991;26;20340;-68
2024/04/24 06:00:19;;;;;;;23.47;11.83;;;;;;;4.99;74.06;101767.56;5525527;26;20322;-67
2024/04/24 06:02:45;;;;;;;24.13;11.57;;;;;;;5.13;75.82;101764.00;5525850;26;20034;-69
2024/04/24 06:05:12;;;;;;;21.27;10.33;;;;;;;5.41;73.92;101763.81;5526325;26;19998;-72
2024/04/24 06:07:37;;;;;;;5.87;4.47;;;;;;;5.40;70.36;101766.56;5525383;26;20010;-68
2024/04/24 06:10:03;;;;;;;8.53;5.13;;;;;;;5.34;71.94;101745.88;5462482;26;20264;-70
2024/04/24 06:12:29;;;;;;;10.20;6.37;;;;;;;5.68;73.38;101760.22;5493240;26;19997;-67
2024/04/24 06:14:55;;;;;;;14.97;8.90;;;;;;;5.75;71.24;101757.03;5494242;26;20400;-69
2024/04/24 06:17:20;;;;;;;20.53;10.33;;;;;;;5.77;71.21;101744.56;5492680;26;20012;-71
2024/04/24 06:19:46;;;;;;;15.53;7.97;;;;;;;5.74;71.59;101751.88;5525398;26;20001;-67
2024/04/24 06:22:11;;;;;;;9.67;5.57;;;;;;;5.65;72.38;101761.28;5492493;26;20001;-68
2024/04/24 06:24:36;;;;;;;6.93;5.77;;;;;;;5.53;74.41;101767.44;5523165;26;20013;-68
2024/04/24 06:27:02;;;;;;;11.53;5.73;;;;;;;5.40;73.14;101769.22;5522049;26;20036;-74
2024/04/24 06:29:28;;;;;;;7.03;4.30;;;;;;;5.33;72.17;101787.28;5525992;25;20036;-72
2024/04/24 06:31:54;;;;;;;8.80;4.20;;;;;;;5.01;73.67;101770.97;5540521;25;20005;-68
2024/04/24 06:34:19;;;;;;;7.93;4.50;;;;;;;5.00;75.07;101778.97;5516622;25;20016;-71
2024/04/24 06:36:45;;;;;;;9.57;4.40;;;;;;;4.84;75.57;101761.50;5543489;25;20073;-72
2024/04/24 06:39:10;;;;;;;7.97;5.17;;;;;;;4.90;75.76;101773.44;5536575;25;20633;-69
2024/04/24 06:41:36;;;;;;;6.70;4.70;;;;;;;4.85;76.35;101780.81;5541222;25;20037;-70
2024/04/24 06:44:01;;;;;;;8.30;4.43;;;;;;;4.90;75.81;101795.41;5517522;25;20352;-71
2024/04/24 06:46:27;;;;;;;6.03;4.37;;;;;;;4.88;76.51;101797.31;5507353;25;20029;-70
2024/04/24 06:48:52;;;;;;;13.27;6.03;;;;;;;4.75;77.23;101774.47;5540969;25;20041;-73
2024/04/24 06:51:18;;;;;;;11.03;4.73;;;;;;;4.85;75.21;101797.50;5528529;25;20559;-69
2024/04/24 06:53:43;;;;;;;10.13;4.70;;;;;;;4.77;75.59;101780.50;5545348;25;20008;-70
2024/04/24 06:56:09;;;;;;;5.77;4.37;;;;;;;4.86;76.19;101782.50;5539715;25;20016;-71
2024/04/24 06:58:35;;;;;;;7.27;4.73;;;;;;;4.70;76.48;101763.38;5535093;25;20009;-70
2024/04/24 07:01:04;;;;;;;5.53;3.90;;;;;;;4.69;76.43;101785.44;5533382;25;20001;-70
2024/04/24 07:03:32;;;;;;;12.53;6.43;;;;;;;4.68;77.79;101783.72;5541221;25;20144;-70
2024/04/24 07:05:58;;;;;;;14.18;7.88;;;;;;;4.71;78.52;101771.19;5537401;25;20246;-71
2024/04/24 07:08:24;;;;;;;16.60;7.87;;;;;;;4.65;78.17;101747.84;5532536;25;20019;-69
2024/04/24 07:10:52;;;;;;;7.80;5.70;;;;;;;5.02;78.12;101798.19;5542380;25;20353;-72
2024/04/24 07:13:18;;;;;;;5.78;5.00;;;;;;;4.98;78.07;101787.00;5538181;25;20023;-71
2024/04/24 07:15:43;;;;;;;11.17;6.30;;;;;;;4.73;78.29;101760.53;5541096;25;20008;-71
2024/04/24 07:18:09;;;;;;;6.73;5.43;;;;;;;4.85;79.32;101804.56;5537650;25;20024;-68
2024/04/24 07:20:34;;;;;;;9.93;6.40;;;;;;;4.90;80.72;101816.53;5511779;25;20005;-72
2024/04/24 07:23:00;;;;;;;7.63;4.80;;;;;;;4.89;81.79;101801.63;5548512;25;20023;-69
2024/04/24 07:25:25;;;;;;;9.67;6.03;;;;;;;4.89;82.62;101806.91;5541517;25;20012;-69
2024/04/24 07:27:51;;;;;;;6.73;5.80;;;;;;;4.70;83.37;101797.69;5544279;25;20002;-69
2024/04/24 07:30:18;;;;;;;9.40;6.17;;;;;;;4.44;85.40;101786.16;5496186;25;20333;-71
2024/04/24 07:32:44;;;;;;;9.03;6.20;;;;;;;4.39;87.32;101790.88;5509907;25;20010;-71
2024/04/24 07:35:10;;;;;;;9.83;5.90;;;;;;;4.44;88.23;101818.66;5541469;25;20345;-73
2024/04/24 07:37:36;;;;;;;6.60;5.70;;;;;;;4.50;88.23;101806.84;5541062;25;20229;-71
2024/04/24 07:40:01;;;;;;;9.30;6.63;;;;;;;4.62;88.28;101791.06;5543713;25;20001;-70
2024/04/24 07:42:28;;;;;;;9.33;5.90;;;;;;;5.00;88.08;101811.50;5504420;26;20009;-70
2024/04/24 07:44:54;;;;;;;12.73;6.67;;;;;;;5.15;87.08;101793.78;5538087;25;20246;-70
2024/04/24 07:47:19;;;;;;;6.63;5.90;;;;;;;5.21;84.78;101793.41;5562963;25;20024;-72
2024/04/24 07:49:47;;;;;;;12.53;6.43;;;;;;;5.18;85.60;101791.78;5536700;25;20005;-76
2024/04/24 07:52:15;;;;;;;12.53;6.27;;;;;;;5.29;85.40;101791.09;5529712;25;20009;-73
2024/04/24 07:54:42;;;;;;;8.87;5.80;;;;;;;5.22;84.66;101788.00;5538844;25;20005;-71
2024/04/24 07:57:07;;;;;;;7.57;5.90;;;;;;;5.27;86.02;101798.25;5553312;25;20096;-73
2024/04/24 07:59:33;;;;;;;9.37;5.63;;;;;;;5.28;87.17;101794.66;5512096;25;20241;-71
2024/04/24 08:01:58;;;;;;;8.87;6.07;;;;;;;5.45;85.95;101804.09;5542092;25;20009;-70
2024/04/24 08:04:24;;;;;;;12.60;7.93;;;;;;;5.59;85.20;101777.56;5534288;25;20004;-71
2024/04/24 08:06:49;;;;;;;14.37;7.57;;;;;;;5.59;83.92;101767.84;5543568;25;20375;-71
2024/04/24 08:09:17;;;;;;;7.90;6.07;;;;;;;5.70;82.06;101788.25;5512083;25;20018;-70
2024/04/24 08:11:42;;;;;;;10.20;6.30;;;;;;;5.74;82.29;101802.94;5547779;25;20005;-71
2024/04/24 08:14:08;;;;;;;7.07;5.80;;;;;;;5.74;82.03;101787.06;5504838;26;20388;-68
2024/04/24 08:16:33;;;;;;;11.23;7.60;;;;;;;5.92;81.85;101779.69;5546062;25;20004;-70
2024/04/24 08:18:59;;;;;;;12.40;6.60;;;;;;;6.13;81.85;101757.03;5536546;25;20019;-70
2024/04/24 08:21:25;;;;;;;13.43;6.53;;;;;;;6.46;79.09;101774.06;5550232;25;20019;-70
2024/04/24 08:36:10;;;;;;;8.90;6.23;;;;;;;6.06;80.06;101768.13;5455581;25;1565086;-70
2024/04/24 08:38:37;;;;;;;9.93;7.07;;;;;;;6.24;79.70;101763.34;5487097;26;20537;-67
2024/04/24 08:41:12;;;;;;;9.63;7.37;;;;;;;6.28;80.31;101773.59;5503831;26;20002;-68
2024/04/24 08:43:42;;;;;;;9.93;7.00;;;;;;;6.26;81.24;101775.50;5495828;26;20009;-67
2024/04/24 08:46:12;;;;;;;14.40;8.70;;;;;;;6.48;79.77;101762.44;5505108;26;20078;-69
2024/04/24 08:48:42;;;;;;;11.30;6.67;;;;;;;6.63;78.59;101775.47;5503786;26;20456;-70
2024/04/24 08:51:09;;;;;;;10.53;6.73;;;;;;;6.43;77.68;101758.44;5455243;26;20016;-71
2024/04/24 08:53:36;;;;;;;10.07;6.43;;;;;;;6.31;78.42;101759.28;5487573;26;19999;-72
2024/04/24 08:56:07;;;;;;;10.83;7.53;;;;;;;6.52;79.11;101763.88;5504129;26;20544;-66
2024/04/24 08:58:37;;;;;;;9.23;6.70;;;;;;;6.64;79.13;101764.78;5505948;26;19998;-70
2024/04/24 09:01:11;;;;;;;11.03;7.43;;;;;;;6.50;80.12;101760.50;5505026;26;20002;-66
2024/04/24 09:03:41;;;;;;;14.80;7.47;;;;;;;6.56;79.45;101758.38;5472037;26;20009;-67
2024/04/24 09:06:09;;;;;;;11.57;6.23;;;;;;;6.40;79.04;101758.66;5505124;26;19998;-67
2024/04/24 09:08:35;;;;;;;10.43;6.88;;;;;;;6.39;79.21;101757.81;5504910;26;20456;-67
2024/04/24 09:11:01;;;;;;;10.57;6.73;;;;;;;6.53;79.26;101775.31;5504246;26;20013;-68
2024/04/24 09:13:28;;;;;;;8.73;6.00;;;;;;;6.55;78.12;101757.53;5505999;26;20002;-69
2024/04/24 09:15:55;;;;;;;10.53;6.87;;;;;;;6.63;79.23;101775.47;5483013;26;20006;-70
2024/04/24 09:18:21;;;;;;;11.07;6.97;;;;;;;6.74;78.19;101773.75;5488628;26;20079;-69
2024/04/24 09:20:47;;;;;;;8.30;6.03;;;;;;;6.76;78.60;101771.00;5502197;26;20014;-66
2024/04/24 09:23:18;;;;;;;14.60;8.33;;;;;;;6.79;77.83;101771.59;5504443;26;20021;-69
2024/04/24 09:25:45;;;;;;;8.97;6.57;;;;;;;6.91;76.94;101775.13;5504107;26;20353;-66
2024/04/24 09:28:12;;;;;;;12.07;7.07;;;;;;;6.87;77.85;101778.97;5508086;26;20013;-72
2024/04/24 09:30:38;;;;;;;12.10;6.97;;;;;;;6.74;77.88;101757.88;5447425;26;19997;-68
2024/04/24 09:33:05;;;;;;;7.73;5.60;;;;;;;6.72;77.13;101751.84;5443553;26;20095;-69
2024/04/24 09:35:30;;;;;;;10.03;7.07;;;;;;;6.67;77.91;101777.81;5499269;26;19998;-69
2024/04/24 09:37:57;;;;;;;11.57;6.83;;;;;;;6.51;79.15;101771.94;5456932;26;20350;-69
2024/04/24 09:40:24;;;;;;;13.70;7.80;;;;;;;6.65;78.97;101778.84;5446878;26;20031;-69
2024/04/24 09:42:53;;;;;;;9.37;6.60;;;;;;;6.74;78.03;101767.63;5394624;26;20469;-70
2024/04/24 09:45:20;;;;;;;11.77;6.68;;;;;;;6.69;78.75;101780.34;5438503;26;20467;-71
2024/04/24 09:47:46;;;;;;;7.90;5.97;;;;;;;6.62;77.80;101779.09;5488352;26;19998;-71
2024/04/24 09:50:12;;;;;;;7.30;6.30;;;;;;;6.47;77.99;101781.06;5489540;26;20419;-71
2024/04/24 09:52:37;;;;;;;9.67;6.43;;;;;;;6.32;76.52;101775.06;5488056;26;20014;-75
2024/04/24 09:55:04;;;;;;;11.27;6.60;;;;;;;6.33;77.86;101781.19;5488461;26;20014;-71
2024/04/24 09:57:36;;;;;;;9.93;6.27;;;;;;;6.37;78.25;101757.06;5456968;26;20002;-70
2024/04/24 10:00:05;;;;;;;9.27;6.87;;;;;;;6.64;78.54;101780.66;5483011;26;19998;-71
2024/04/24 10:02:31;;;;;;;;;;;;;;;6.54;77.78;101782.28;5490079;26;19998;-74
2024/04/24 10:05:08;;;;;;;10.57;6.57;;;;;;;6.55;78.19;101778.69;5489761;26;19924;-71
2024/04/24 10:07:42;;;;;;;10.27;6.10;;;;;;;6.65;78.35;101781.50;5460549;26;20010;-71
2024/04/24 10:10:09;;;;;;;11.53;6.80;;;;;;;6.63;77.77;101767.53;5486137;26;20029;-71
2024/04/24 10:12:42;;;;;;;10.13;6.97;;;;;;;6.79;77.41;101776.06;5488957;26;20025;-71
2024/04/24 10:15:12;;;;;;;9.97;6.73;;;;;;;6.98;78.00;101786.97;5488975;26;20389;-67
2024/04/24 10:17:41;;;;;;;13.93;9.20;;;;;;;7.06;76.27;101787.25;5431897;26;20066;-71
2024/04/24 10:20:09;;;;;;;10.90;6.68;;;;;;;6.89;74.07;101771.75;5444545;26;20006;-71
2024/04/24 10:22:52;;;;;;;10.27;6.03;;;;;;;6.72;75.41;101772.19;5435249;26;20009;-72
2024/04/24 10:25:26;;;;;;;9.60;6.43;;;;;;;6.86;74.37;101785.22;5496662;26;20031;-69
2024/04/24 10:28:24;;;;;;;13.57;7.83;;;;;;;6.84;74.19;101773.91;5502416;26;19998;-76
2024/04/24 10:31:02;;;;;;;5.53;5.00;;;;;;;7.00;75.43;101789.50;5467154;26;19998;-71
2024/04/24 10:33:44;;;;;;;9.93;5.70;;;;;;;7.08;74.31;101781.81;5398276;26;20002;-71
2024/04/24 10:39:19;;;;;;;11.60;6.53;;;;;;;6.93;72.43;101762.63;5491984;26;19994;-72
2024/04/24 10:41:53;;;;;;;8.37;6.77;;;;;;;7.04;72.96;101770.63;5490858;26;20027;-70
2024/04/24 10:44:28;;;;;;;9.90;4.90;;;;;;;7.08;71.79;101772.09;5432267;26;19998;-70
2024/04/24 10:47:27;;;;;;;9.00;5.27;;;;;;;6.97;71.90;101769.41;5458033;26;20010;-71
2024/04/24 10:50:32;;;;;;;11.00;4.67;;;;;;;7.29;70.76;101784.69;5461688;26;20047;-70
2024/04/24 10:53:48;;;;;;;6.10;5.00;;;;;;;6.74;70.93;101706.72;5409656;26;20038;-70
2024/04/24 10:56:41;;;;;;;6.43;5.50;;;;;;;7.26;70.92;101769.00;5432012;26;20009;-72
2024/04/24 11:03:01;;;;;;;6.57;5.53;;;;;;;6.66;70.31;101680.00;5458648;26;20010;-71
2024/04/24 11:05:37;;;;;;;8.73;5.40;;;;;;;7.06;70.49;101734.28;5439476;26;20361;-71
2024/04/24 11:08:06;;;;;;;6.07;4.77;;;;;;;7.11;69.23;101750.66;5460186;26;20084;-70
2024/04/24 11:10:36;;;;;;;9.77;7.67;;;;;;;7.30;70.61;101770.47;5445111;26;20361;-71
2024/04/24 11:13:21;;;;;;;11.20;5.90;;;;;;;6.86;69.45;101684.59;5422901;26;20002;-71
2024/04/24 11:15:47;;;;;;;6.23;4.70;;;;;;;7.37;67.04;101769.03;5422137;26;20018;-69
2024/04/24 11:18:13;;;;;;;5.70;4.80;;;;;;;7.35;65.53;101747.09;5485722;26;19998;-70
2024/04/24 11:20:41;;;;;;;10.40;6.37;;;;;;;7.05;63.99;101682.25;5459101;26;20006;-71
2024/04/24 11:23:11;;;;;;;6.75;5.30;;;;;;;7.03;63.32;101689.47;5459364;26;20017;-71
2024/04/24 11:25:55;;;;;;;7.47;5.27;;;;;;;7.19;63.89;101693.59;5490741;26;20038;-69
2024/04/24 11:28:25;;;;;;;8.40;5.07;;;;;;;7.80;62.94;101763.88;5457515;26;20014;-70
2024/04/24 11:30:57;;;;;;;8.73;4.97;;;;;;;7.93;63.77;101737.25;5490411;26;20066;-68
2024/04/24 11:33:29;;;;;;;12.10;5.28;;;;;;;8.00;62.50;101744.59;5417938;26;20011;-68
2024/04/24 11:36:00;;;;;;;8.00;5.97;;;;;;;8.24;64.26;101770.16;5436699;26;20010;-69
2024/04/24 11:38:39;;;;;;;9.37;4.90;;;;;;;8.10;61.77;101742.06;5475688;26;19998;-69
2024/04/24 11:41:09;;;;;;;8.27;5.00;;;;;;;7.96;60.73;101739.66;5392794;26;20009;-70
2024/04/24 11:43:35;;;;;;;8.83;4.97;;;;;;;7.78;61.50;101750.75;5463367;26;20017;-67
2024/04/24 11:46:05;;;;;;;13.20;5.70;;;;;;;7.60;64.93;101719.53;5458327;26;19998;-68
2024/04/24 11:48:38;;;;;;;14.90;7.57;;;;;;;7.81;67.79;101760.28;5459323;26;20532;-69
2024/04/24 11:51:09;;;;;;;17.93;9.20;;;;;;;7.49;63.87;101714.22;5491529;26;19994;-70
2024/04/24 11:53:46;;;;;;;18.20;9.60;;;;;;;7.56;66.18;101718.94;5460657;26;20100;-68
2024/04/24 11:56:12;;;;;;;10.13;5.33;;;;;;;7.69;64.17;101767.38;5440208;26;20055;-69